sensor_id;sensor_type;location;lat;lon;timestamp;temperature;humidity
40151;DHT22;25866;52.420;10.640;2023-02-01T00:01:55;4.80;99.90
40151;DHT22;25866;52.420;10.640;2023-02-01T00:04:21;4.70;99.90
40151;DHT22;25866;52.420;10.640;2023-02-01T00:06:47;4.80;99.90
40151;DHT22;25866;52.420;10.640;2023-02-01T00:09:14;4.80;99.90
40151;DHT22;25866;52.420;10.640;2023-02-01T00:11:40;4.80;99.90
40151;DHT22;25866;52.420;10.640;2023-02-01T00:14:06;4.70;99.90
40151;DHT22;25866;52.420;10.640;2023-02-01T00:16:33;4.70;99.90
40151;DHT22;25866;52.420;10.640;2023-02-01T00:19:08;4.80;99.90
40151;DHT22;25866;52.420;10.640;2023-02-01T00:21:35;4.90;99.90
40151;DHT22;25866;52.420;10.640;2023-02-01T00:24:01;4.90;99.90
40151;DHT22;25866;52.420;10.640;2023-02-01T00:26:37;4.90;99.90
40151;DHT22;25866;52.420;10.640;2023-02-01T00:29:06;4.90;99.90
40151;DHT22;25866;52.420;10.640;2023-02-01T00:31:32;5.00;99.90
40151;DHT22;25866;52.420;10.640;2023-02-01T00:33:58;5.10;99.90
40151;DHT22;25866;52.420;10.640;2023-02-01T00:36:24;5.20;99.90
40151;DHT22;25866;52.420;10.640;2023-02-01T00:38:50;5.20;99.90
40151;DHT22;25866;52.420;10.640;2023-02-01T00:41:18;5.30;99.90
40151;DHT22;25866;52.420;10.640;2023-02-01T00:43:45;5.30;99.90
40151;DHT22;25866;52.420;10.640;2023-02-01T00:46:12;5.20;99.90
40151;DHT22;25866;52.420;10.640;2023-02-01T00:48:38;5.20;99.90
40151;DHT22;25866;52.420;10.640;2023-02-01T00:51:17;5.20;99.90
40151;DHT22;25866;52.420;10.640;2023-02-01T00:53:43;5.30;99.90
40151;DHT22;25866;52.420;10.640;2023-02-01T00:56:10;5.20;99.90
40151;DHT22;25866;52.420;10.640;2023-02-01T01:01:17;5.20;99.90
40151;DHT22;25866;52.420;10.640;2023-02-01T01:03:46;5.10;99.90
40151;DHT22;25866;52.420;10.640;2023-02-01T01:06:17;5.20;99.90
40151;DHT22;25866;52.420;10.640;2023-02-01T01:08:43;5.10;99.90
40151;DHT22;25866;52.420;10.640;2023-02-01T01:11:15;5.10;99.90
40151;DHT22;25866;52.420;10.640;2023-02-01T01:13:42;5.20;99.90
40151;DHT22;25866;52.420;10.640;2023-02-01T01:16:09;5.10;99.90
40151;DHT22;25866;52.420;10.640;2023-02-01T01:18:36;5.20;99.90
40151;DHT22;25866;52.420;10.640;2023-02-01T01:21:04;5.20;99.90
40151;DHT22;25866;52.420;10.640;2023-02-01T01:23:30;5.20;99.90
40151;DHT22;25866;52.420;10.640;2023-02-01T01:25:56;5.20;99.90
40151;DHT22;25866;52.420;10.640;2023-02-01T01:28:22;5.20;99.90
40151;DHT22;25866;52.420;10.640;2023-02-01T01:30:47;5.20;99.90
40151;DHT22;25866;52.420;10.640;2023-02-01T01:33:14;5.30;99.90
40151;DHT22;25866;52.420;10.640;2023-02-01T01:35:39;5.10;99.90
40151;DHT22;25866;52.420;10.640;2023-02-01T01:38:05;5.10;99.90
40151;DHT22;25866;52.420;10.640;2023-02-01T01:40:31;5.10;99.90
40151;DHT22;25866;52.420;10.640;2023-02-01T01:42:58;5.10;99.90
40151;DHT22;25866;52.420;10.640;2023-02-01T01:45:32;5.10;99.90
40151;DHT22;25866;52.420;10.640;2023-02-01T01:48:05;5.20;99.90
40151;DHT22;25866;52.420;10.640;2023-02-01T01:50:44;5.10;99.90
40151;DHT22;25866;52.420;10.640;2023-02-01T01:53:18;5.10;99.90
40151;DHT22;25866;52.420;10.640;2023-02-01T01:55:46;5.00;99.90
40151;DHT22;25866;52.420;10.640;2023-02-01T01:58:19;5.00;99.90
40151;DHT22;25866;52.420;10.640;2023-02-01T02:00:47;5.00;99.90
40151;DHT22;25866;52.420;10.640;2023-02-01T02:05:46;5.00;99.90
40151;DHT22;25866;52.420;10.640;2023-02-01T02:08:14;5.00;99.90
40151;DHT22;25866;52.420;10.640;2023-02-01T02:10:39;5.00;99.90
40151;DHT22;25866;52.420;10.640;2023-02-01T02:13:29;5.00;99.90
40151;DHT22;25866;52.420;10.640;2023-02-01T02:16:24;5.10;99.90
40151;DHT22;25866;52.420;10.640;2023-02-01T02:37:00;5.00;99.90
40151;DHT22;25866;52.420;10.640;2023-02-01T02:43:04;5.00;99.90
40151;DHT22;25866;52.420;10.640;2023-02-01T02:48:49;5.10;99.90
40151;DHT22;25866;52.420;10.640;2023-02-01T02:51:26;5.00;99.90
40151;DHT22;25866;52.420;10.640;2023-02-01T02:54:22;4.90;99.90
40151;DHT22;25866;52.420;10.640;2023-02-01T02:57:10;4.90;99.90
40151;DHT22;25866;52.420;10.640;2023-02-01T02:59:58;4.90;99.90
40151;DHT22;25866;52.420;10.640;2023-02-01T03:02:44;4.90;99.90
40151;DHT22;25866;52.420;10.640;2023-02-01T03:05:36;4.90;99.90
40151;DHT22;25866;52.420;10.640;2023-02-01T03:13:28;4.90;99.90
40151;DHT22;25866;52.420;10.640;2023-02-01T03:16:08;5.00;99.90
40151;DHT22;25866;52.420;10.640;2023-02-01T03:18:41;4.90;99.90
40151;DHT22;25866;52.420;10.640;2023-02-01T03:21:12;4.90;99.90
40151;DHT22;25866;52.420;10.640;2023-02-01T03:23:41;4.90;99.90
40151;DHT22;25866;52.420;10.640;2023-02-01T03:26:11;4.90;99.90
40151;DHT22;25866;52.420;10.640;2023-02-01T03:28:41;4.90;99.90
40151;DHT22;25866;52.420;10.640;2023-02-01T03:31:08;4.90;99.90
40151;DHT22;25866;52.420;10.640;2023-02-01T03:33:35;4.90;99.90
40151;DHT22;25866;52.420;10.640;2023-02-01T03:36:21;4.80;99.90
40151;DHT22;25866;52.420;10.640;2023-02-01T03:39:10;4.80;99.90
40151;DHT22;25866;52.420;10.640;2023-02-01T03:41:44;4.90;99.90
40151;DHT22;25866;52.420;10.640;2023-02-01T03:49:38;4.80;99.90
40151;DHT22;25866;52.420;10.640;2023-02-01T03:52:11;4.90;99.90
40151;DHT22;25866;52.420;10.640;2023-02-01T03:54:39;4.90;99.90
40151;DHT22;25866;52.420;10.640;2023-02-01T03:57:09;4.80;99.90
40151;DHT22;25866;52.420;10.640;2023-02-01T03:59:39;4.80;99.90
40151;DHT22;25866;52.420;10.640;2023-02-01T04:02:05;4.80;99.90
40151;DHT22;25866;52.420;10.640;2023-02-01T04:04:31;4.80;99.90
40151;DHT22;25866;52.420;10.640;2023-02-01T04:06:57;4.80;99.90
40151;DHT22;25866;52.420;10.640;2023-02-01T04:09:22;4.80;99.90
40151;DHT22;25866;52.420;10.640;2023-02-01T04:11:48;4.80;99.90
40151;DHT22;25866;52.420;10.640;2023-02-01T04:14:14;4.70;99.90
40151;DHT22;25866;52.420;10.640;2023-02-01T04:16:40;4.80;99.90
40151;DHT22;25866;52.420;10.640;2023-02-01T04:19:05;4.80;99.90
40151;DHT22;25866;52.420;10.640;2023-02-01T04:21:31;4.80;99.90
40151;DHT22;25866;52.420;10.640;2023-02-01T04:23:57;4.80;99.90
40151;DHT22;25866;52.420;10.640;2023-02-01T04:26:23;4.80;99.90
40151;DHT22;25866;52.420;10.640;2023-02-01T04:28:49;4.80;99.90
40151;DHT22;25866;52.420;10.640;2023-02-01T04:31:16;4.80;99.90
40151;DHT22;25866;52.420;10.640;2023-02-01T04:33:43;4.80;99.90
40151;DHT22;25866;52.420;10.640;2023-02-01T04:36:09;4.80;99.90
40151;DHT22;25866;52.420;10.640;2023-02-01T04:38:34;4.80;99.90
40151;DHT22;25866;52.420;10.640;2023-02-01T04:41:00;4.80;99.90
40151;DHT22;25866;52.420;10.640;2023-02-01T04:43:26;4.70;99.90
40151;DHT22;25866;52.420;10.640;2023-02-01T04:45:52;4.70;99.90
40151;DHT22;25866;52.420;10.640;2023-02-01T04:48:20;4.70;99.90
40151;DHT22;25866;52.420;10.640;2023-02-01T04:50:48;4.80;99.90
40151;DHT22;25866;52.420;10.640;2023-02-01T04:53:15;4.80;99.90
40151;DHT22;25866;52.420;10.640;2023-02-01T04:55:41;4.80;99.90
40151;DHT22;25866;52.420;10.640;2023-02-01T04:58:07;4.80;99.90
40151;DHT22;25866;52.420;10.640;2023-02-01T05:00:33;4.80;99.90
40151;DHT22;25866;52.420;10.640;2023-02-01T05:02:59;4.80;99.90
40151;DHT22;25866;52.420;10.640;2023-02-01T05:05:24;4.80;99.90
40151;DHT22;25866;52.420;10.640;2023-02-01T05:07:50;4.80;99.90
40151;DHT22;25866;52.420;10.640;2023-02-01T05:10:16;4.90;99.90
40151;DHT22;25866;52.420;10.640;2023-02-01T05:12:43;4.90;99.90
40151;DHT22;25866;52.420;10.640;2023-02-01T05:15:29;4.90;99.90
40151;DHT22;25866;52.420;10.640;2023-02-01T05:17:55;4.90;99.90
40151;DHT22;25866;52.420;10.640;2023-02-01T05:20:20;4.90;99.90
40151;DHT22;25866;52.420;10.640;2023-02-01T05:22:46;4.90;99.90
40151;DHT22;25866;52.420;10.640;2023-02-01T05:25:12;4.90;99.90
40151;DHT22;25866;52.420;10.640;2023-02-01T05:27:38;4.80;99.90
40151;DHT22;25866;52.420;10.640;2023-02-01T05:30:05;4.80;99.90
40151;DHT22;25866;52.420;10.640;2023-02-01T05:32:31;4.80;99.90
40151;DHT22;25866;52.420;10.640;2023-02-01T05:34:57;4.70;99.90
40151;DHT22;25866;52.420;10.640;2023-02-01T05:37:23;4.60;99.90
40151;DHT22;25866;52.420;10.640;2023-02-01T05:39:49;4.60;99.90
40151;DHT22;25866;52.420;10.640;2023-02-01T05:42:15;4.60;99.90
40151;DHT22;25866;52.420;10.640;2023-02-01T05:44:41;4.60;99.90
40151;DHT22;25866;52.420;10.640;2023-02-01T05:47:07;4.50;99.90
40151;DHT22;25866;52.420;10.640;2023-02-01T05:49:33;4.50;99.90
40151;DHT22;25866;52.420;10.640;2023-02-01T05:51:58;4.60;99.90
40151;DHT22;25866;52.420;10.640;2023-02-01T05:54:24;4.50;99.90
40151;DHT22;25866;52.420;10.640;2023-02-01T05:56:50;4.50;99.90
40151;DHT22;25866;52.420;10.640;2023-02-01T05:59:16;4.50;99.90
40151;DHT22;25866;52.420;10.640;2023-02-01T06:01:41;4.40;99.90
40151;DHT22;25866;52.420;10.640;2023-02-01T06:04:07;4.40;99.90
40151;DHT22;25866;52.420;10.640;2023-02-01T06:06:33;4.40;99.90
40151;DHT22;25866;52.420;10.640;2023-02-01T06:09:00;4.30;99.90
40151;DHT22;25866;52.420;10.640;2023-02-01T06:11:26;4.30;99.90
40151;DHT22;25866;52.420;10.640;2023-02-01T06:13:52;4.30;99.90
40151;DHT22;25866;52.420;10.640;2023-02-01T06:16:17;4.30;99.90
40151;DHT22;25866;52.420;10.640;2023-02-01T06:18:43;4.30;99.90
40151;DHT22;25866;52.420;10.640;2023-02-01T06:21:09;4.30;99.90
40151;DHT22;25866;52.420;10.640;2023-02-01T06:23:34;4.30;99.90
40151;DHT22;25866;52.420;10.640;2023-02-01T06:26:03;4.30;99.90
40151;DHT22;25866;52.420;10.640;2023-02-01T06:28:30;4.30;99.90
40151;DHT22;25866;52.420;10.640;2023-02-01T06:30:56;4.30;99.90
40151;DHT22;25866;52.420;10.640;2023-02-01T06:33:24;4.30;99.90
40151;DHT22;25866;52.420;10.640;2023-02-01T06:35:57;4.30;99.90
40151;DHT22;25866;52.420;10.640;2023-02-01T06:38:24;4.40;99.90
40151;DHT22;25866;52.420;10.640;2023-02-01T06:40:57;4.40;99.90
40151;DHT22;25866;52.420;10.640;2023-02-01T06:43:24;4.40;99.90
40151;DHT22;25866;52.420;10.640;2023-02-01T06:45:51;4.40;99.90
40151;DHT22;25866;52.420;10.640;2023-02-01T06:48:17;4.40;99.90
40151;DHT22;25866;52.420;10.640;2023-02-01T06:50:43;4.40;99.90
40151;DHT22;25866;52.420;10.640;2023-02-01T06:53:09;4.40;99.90
40151;DHT22;25866;52.420;10.640;2023-02-01T06:55:35;4.40;99.90
40151;DHT22;25866;52.420;10.640;2023-02-01T06:58:01;4.40;99.90
40151;DHT22;25866;52.420;10.640;2023-02-01T07:00:28;4.40;99.90
40151;DHT22;25866;52.420;10.640;2023-02-01T07:02:54;4.40;99.90
40151;DHT22;25866;52.420;10.640;2023-02-01T07:05:20;4.40;99.90
40151;DHT22;25866;52.420;10.640;2023-02-01T07:07:46;4.30;99.90
40151;DHT22;25866;52.420;10.640;2023-02-01T07:10:12;4.30;99.90
40151;DHT22;25866;52.420;10.640;2023-02-01T07:12:38;4.20;99.90
40151;DHT22;25866;52.420;10.640;2023-02-01T07:15:05;4.20;99.90
40151;DHT22;25866;52.420;10.640;2023-02-01T07:17:32;4.20;99.90
40151;DHT22;25866;52.420;10.640;2023-02-01T07:19:57;4.20;99.90
40151;DHT22;25866;52.420;10.640;2023-02-01T07:22:27;4.20;99.90
40151;DHT22;25866;52.420;10.640;2023-02-01T07:24:53;4.10;99.90
40151;DHT22;25866;52.420;10.640;2023-02-01T07:27:18;4.20;99.90
40151;DHT22;25866;52.420;10.640;2023-02-01T07:29:45;4.30;99.90
40151;DHT22;25866;52.420;10.640;2023-02-01T07:32:11;4.30;99.90
40151;DHT22;25866;52.420;10.640;2023-02-01T07:34:36;4.30;99.90
40151;DHT22;25866;52.420;10.640;2023-02-01T07:37:02;4.40;99.90
40151;DHT22;25866;52.420;10.640;2023-02-01T07:39:28;4.30;99.90
40151;DHT22;25866;52.420;10.640;2023-02-01T07:41:57;4.40;99.90
40151;DHT22;25866;52.420;10.640;2023-02-01T07:44:22;4.40;99.90
40151;DHT22;25866;52.420;10.640;2023-02-01T07:46:49;4.60;99.90
40151;DHT22;25866;52.420;10.640;2023-02-01T07:49:15;4.60;99.90
40151;DHT22;25866;52.420;10.640;2023-02-01T07:51:43;4.60;99.90
40151;DHT22;25866;52.420;10.640;2023-02-01T07:54:08;4.60;99.90
40151;DHT22;25866;52.420;10.640;2023-02-01T07:56:34;4.60;99.90
40151;DHT22;25866;52.420;10.640;2023-02-01T07:59:01;4.60;99.90
40151;DHT22;25866;52.420;10.640;2023-02-01T08:01:28;4.60;99.90
40151;DHT22;25866;52.420;10.640;2023-02-01T08:03:56;4.60;99.90
40151;DHT22;25866;52.420;10.640;2023-02-01T08:06:22;4.60;99.90
40151;DHT22;25866;52.420;10.640;2023-02-01T08:08:49;4.70;99.90
40151;DHT22;25866;52.420;10.640;2023-02-01T08:11:16;4.70;99.90
40151;DHT22;25866;52.420;10.640;2023-02-01T08:13:42;4.60;99.90
40151;DHT22;25866;52.420;10.640;2023-02-01T08:16:09;4.60;99.90
40151;DHT22;25866;52.420;10.640;2023-02-01T08:18:37;4.60;99.90
40151;DHT22;25866;52.420;10.640;2023-02-01T08:21:11;4.60;99.90
40151;DHT22;25866;52.420;10.640;2023-02-01T08:23:38;4.60;99.90
40151;DHT22;25866;52.420;10.640;2023-02-01T08:26:19;4.60;99.90
40151;DHT22;25866;52.420;10.640;2023-02-01T08:29:05;4.60;99.90
40151;DHT22;25866;52.420;10.640;2023-02-01T08:31:31;4.60;99.90
40151;DHT22;25866;52.420;10.640;2023-02-01T08:33:59;4.60;99.90
40151;DHT22;25866;52.420;10.640;2023-02-01T08:36:28;4.50;99.90
40151;DHT22;25866;52.420;10.640;2023-02-01T08:38:54;4.50;99.90
40151;DHT22;25866;52.420;10.640;2023-02-01T08:41:23;4.50;99.90
40151;DHT22;25866;52.420;10.640;2023-02-01T08:43:49;4.50;99.90
40151;DHT22;25866;52.420;10.640;2023-02-01T08:46:15;4.50;99.90
40151;DHT22;25866;52.420;10.640;2023-02-01T08:48:42;4.40;99.90
40151;DHT22;25866;52.420;10.640;2023-02-01T08:51:13;4.50;99.90
40151;DHT22;25866;52.420;10.640;2023-02-01T08:53:39;4.40;99.90
40151;DHT22;25866;52.420;10.640;2023-02-01T08:56:12;4.40;99.90
40151;DHT22;25866;52.420;10.640;2023-02-01T08:58:39;4.40;99.90
40151;DHT22;25866;52.420;10.640;2023-02-01T09:01:11;4.50;99.90
40151;DHT22;25866;52.420;10.640;2023-02-01T09:03:38;4.50;99.90
40151;DHT22;25866;52.420;10.640;2023-02-01T09:06:07;4.40;99.90
40151;DHT22;25866;52.420;10.640;2023-02-01T09:08:33;4.40;99.90
40151;DHT22;25866;52.420;10.640;2023-02-01T09:11:01;4.60;99.90
40151;DHT22;25866;52.420;10.640;2023-02-01T09:13:27;4.60;99.90
40151;DHT22;25866;52.420;10.640;2023-02-01T09:15:53;4.70;99.90
40151;DHT22;25866;52.420;10.640;2023-02-01T09:18:19;4.70;99.90
40151;DHT22;25866;52.420;10.640;2023-02-01T09:20:44;4.70;99.90
40151;DHT22;25866;52.420;10.640;2023-02-01T09:23:10;4.60;99.90
40151;DHT22;25866;52.420;10.640;2023-02-01T09:25:37;4.60;99.90
40151;DHT22;25866;52.420;10.640;2023-02-01T09:28:04;4.60;99.90
40151;DHT22;25866;52.420;10.640;2023-02-01T09:30:32;4.60;99.90
40151;DHT22;25866;52.420;10.640;2023-02-01T09:32:58;4.70;99.90
40151;DHT22;25866;52.420;10.640;2023-02-01T09:35:24;4.80;99.90
40151;DHT22;25866;52.420;10.640;2023-02-01T09:37:49;4.80;99.90
40151;DHT22;25866;52.420;10.640;2023-02-01T09:40:16;4.80;99.90
40151;DHT22;25866;52.420;10.640;2023-02-01T09:45:32;4.60;99.90
40151;DHT22;25866;52.420;10.640;2023-02-01T09:48:24;4.60;99.90
40151;DHT22;25866;52.420;10.640;2023-02-01T09:50:56;4.60;99.90
40151;DHT22;25866;52.420;10.640;2023-02-01T09:53:29;4.60;99.90
40151;DHT22;25866;52.420;10.640;2023-02-01T09:56:06;4.80;99.90
40151;DHT22;25866;52.420;10.640;2023-02-01T09:58:36;5.00;99.90
40151;DHT22;25866;52.420;10.640;2023-02-01T10:01:08;5.10;99.90
40151;DHT22;25866;52.420;10.640;2023-02-01T10:03:36;5.20;99.90
40151;DHT22;25866;52.420;10.640;2023-02-01T10:14:42;5.30;99.90
40151;DHT22;25866;52.420;10.640;2023-02-01T10:22:58;5.40;99.90
40151;DHT22;25866;52.420;10.640;2023-02-01T10:25:31;5.50;99.90
40151;DHT22;25866;52.420;10.640;2023-02-01T10:28:01;5.50;99.90
40151;DHT22;25866;52.420;10.640;2023-02-01T10:30:33;5.40;99.90
40151;DHT22;25866;52.420;10.640;2023-02-01T10:33:25;5.40;99.90
40151;DHT22;25866;52.420;10.640;2023-02-01T10:36:16;5.30;99.90
40151;DHT22;25866;52.420;10.640;2023-02-01T10:38:43;5.20;99.90
40151;DHT22;25866;52.420;10.640;2023-02-01T10:41:17;5.10;99.90
40151;DHT22;25866;52.420;10.640;2023-02-01T10:43:48;5.10;99.90
40151;DHT22;25866;52.420;10.640;2023-02-01T10:46:16;5.20;99.90
40151;DHT22;25866;52.420;10.640;2023-02-01T10:48:42;5.20;99.90
40151;DHT22;25866;52.420;10.640;2023-02-01T10:51:20;5.10;99.90
40151;DHT22;25866;52.420;10.640;2023-02-01T10:54:01;5.00;99.90
40151;DHT22;25866;52.420;10.640;2023-02-01T10:56:29;5.10;99.90
40151;DHT22;25866;52.420;10.640;2023-02-01T10:59:04;5.10;99.90
40151;DHT22;25866;52.420;10.640;2023-02-01T11:01:41;5.10;99.90
40151;DHT22;25866;52.420;10.640;2023-02-01T11:04:11;5.10;99.90
40151;DHT22;25866;52.420;10.640;2023-02-01T11:06:41;5.30;99.90
40151;DHT22;25866;52.420;10.640;2023-02-01T11:14:16;5.40;99.90
40151;DHT22;25866;52.420;10.640;2023-02-01T11:16:50;5.50;99.90
40151;DHT22;25866;52.420;10.640;2023-02-01T11:19:17;5.50;99.90
40151;DHT22;25866;52.420;10.640;2023-02-01T11:21:44;5.60;99.90
40151;DHT22;25866;52.420;10.640;2023-02-01T11:24:27;5.60;99.90
40151;DHT22;25866;52.420;10.640;2023-02-01T11:26:59;5.60;99.90
40151;DHT22;25866;52.420;10.640;2023-02-01T11:29:26;5.60;99.90
40151;DHT22;25866;52.420;10.640;2023-02-01T11:31:59;5.70;99.90
40151;DHT22;25866;52.420;10.640;2023-02-01T11:34:30;5.60;99.90
40151;DHT22;25866;52.420;10.640;2023-02-01T11:37:00;5.60;99.90
40151;DHT22;25866;52.420;10.640;2023-02-01T11:39:31;5.70;99.90
40151;DHT22;25866;52.420;10.640;2023-02-01T11:42:15;5.70;99.90
40151;DHT22;25866;52.420;10.640;2023-02-01T11:44:43;5.70;99.90
40151;DHT22;25866;52.420;10.640;2023-02-01T11:47:27;5.80;99.90
40151;DHT22;25866;52.420;10.640;2023-02-01T11:50:03;5.80;99.90
40151;DHT22;25866;52.420;10.640;2023-02-01T12:06:51;6.20;99.90
40151;DHT22;25866;52.420;10.640;2023-02-01T12:26:04;6.20;99.90
40151;DHT22;25866;52.420;10.640;2023-02-01T12:29:12;6.20;99.90
40151;DHT22;25866;52.420;10.640;2023-02-01T12:32:43;6.20;99.90
40151;DHT22;25866;52.420;10.640;2023-02-01T12:38:03;6.10;99.90
40151;DHT22;25866;52.420;10.640;2023-02-01T12:40:47;6.00;99.90
40151;DHT22;25866;52.420;10.640;2023-02-01T12:43:39;6.00;99.90
40151;DHT22;25866;52.420;10.640;2023-02-01T12:46:12;5.90;99.90
40151;DHT22;25866;52.420;10.640;2023-02-01T12:49:05;5.90;99.90
40151;DHT22;25866;52.420;10.640;2023-02-01T12:51:38;5.90;99.90
40151;DHT22;25866;52.420;10.640;2023-02-01T12:57:23;5.70;99.90
40151;DHT22;25866;52.420;10.640;2023-02-01T13:03:05;5.60;99.90
40151;DHT22;25866;52.420;10.640;2023-02-01T13:05:46;5.40;99.90
40151;DHT22;25866;52.420;10.640;2023-02-01T13:08:24;5.40;99.90
40151;DHT22;25866;52.420;10.640;2023-02-01T13:11:06;5.30;99.90
40151;DHT22;25866;52.420;10.640;2023-02-01T13:13:52;5.20;99.90
40151;DHT22;25866;52.420;10.640;2023-02-01T13:16:34;5.20;99.90
40151;DHT22;25866;52.420;10.640;2023-02-01T13:21:46;5.10;99.90
40151;DHT22;25866;52.420;10.640;2023-02-01T13:27:11;5.10;99.90
40151;DHT22;25866;52.420;10.640;2023-02-01T13:29:51;5.00;99.90
40151;DHT22;25866;52.420;10.640;2023-02-01T13:43:17;5.00;99.90
40151;DHT22;25866;52.420;10.640;2023-02-01T13:45:53;5.00;99.90
40151;DHT22;25866;52.420;10.640;2023-02-01T13:48:28;5.00;99.90
40151;DHT22;25866;52.420;10.640;2023-02-01T13:50:57;4.90;99.90
40151;DHT22;25866;52.420;10.640;2023-02-01T13:53:29;5.00;99.90
40151;DHT22;25866;52.420;10.640;2023-02-01T13:56:01;5.00;99.90
40151;DHT22;25866;52.420;10.640;2023-02-01T13:58:38;5.00;99.90
40151;DHT22;25866;52.420;10.640;2023-02-01T14:03:56;4.80;99.90
40151;DHT22;25866;52.420;10.640;2023-02-01T14:09:14;4.70;99.90
40151;DHT22;25866;52.420;10.640;2023-02-01T14:17:32;4.70;99.90
40151;DHT22;25866;52.420;10.640;2023-02-01T14:19:37;4.70;99.90
40151;DHT22;25866;52.420;10.640;2023-02-01T14:24:56;4.70;99.90
40151;DHT22;25866;52.420;10.640;2023-02-01T14:27:26;4.70;99.90
40151;DHT22;25866;52.420;10.640;2023-02-01T14:30:06;4.60;99.90
40151;DHT22;25866;52.420;10.640;2023-02-01T14:32:40;4.60;99.90
40151;DHT22;25866;52.420;10.640;2023-02-01T14:35:20;4.60;99.90
40151;DHT22;25866;52.420;10.640;2023-02-01T14:37:51;4.50;99.90
40151;DHT22;25866;52.420;10.640;2023-02-01T14:40:25;4.60;99.90
40151;DHT22;25866;52.420;10.640;2023-02-01T14:42:52;4.60;99.90
40151;DHT22;25866;52.420;10.640;2023-02-01T14:56:04;4.40;99.90
40151;DHT22;25866;52.420;10.640;2023-02-01T14:59:01;4.40;99.90
40151;DHT22;25866;52.420;10.640;2023-02-01T15:01:34;4.50;99.90
40151;DHT22;25866;52.420;10.640;2023-02-01T15:06:58;4.40;99.90
40151;DHT22;25866;52.420;10.640;2023-02-01T15:09:47;4.50;99.90
40151;DHT22;25866;52.420;10.640;2023-02-01T15:15:21;4.30;99.90
40151;DHT22;25866;52.420;10.640;2023-02-01T15:20:20;4.20;99.90
40151;DHT22;25866;52.420;10.640;2023-02-01T15:23:16;4.20;99.90
40151;DHT22;25866;52.420;10.640;2023-02-01T15:25:46;4.20;99.90
40151;DHT22;25866;52.420;10.640;2023-02-01T15:28:15;4.20;99.90
40151;DHT22;25866;52.420;10.640;2023-02-01T15:33:18;4.10;99.90
40151;DHT22;25866;52.420;10.640;2023-02-01T15:35:48;4.10;99.90
40151;DHT22;25866;52.420;10.640;2023-02-01T15:38:30;4.10;99.90
40151;DHT22;25866;52.420;10.640;2023-02-01T15:41:17;4.00;99.90
40151;DHT22;25866;52.420;10.640;2023-02-01T15:44:17;4.10;99.90
40151;DHT22;25866;52.420;10.640;2023-02-01T15:46:46;4.10;99.90
40151;DHT22;25866;52.420;10.640;2023-02-01T15:51:50;4.10;99.90
40151;DHT22;25866;52.420;10.640;2023-02-01T15:54:25;4.10;99.90
40151;DHT22;25866;52.420;10.640;2023-02-01T15:56:53;4.00;99.90
40151;DHT22;25866;52.420;10.640;2023-02-01T15:59:24;4.00;99.90
40151;DHT22;25866;52.420;10.640;2023-02-01T16:01:53;4.00;99.90
40151;DHT22;25866;52.420;10.640;2023-02-01T16:04:22;3.90;99.90
40151;DHT22;25866;52.420;10.640;2023-02-01T16:06:53;3.90;99.90
40151;DHT22;25866;52.420;10.640;2023-02-01T16:09:24;3.80;99.90
40151;DHT22;25866;52.420;10.640;2023-02-01T16:14:20;3.70;99.90
40151;DHT22;25866;52.420;10.640;2023-02-01T16:16:46;3.80;99.90
40151;DHT22;25866;52.420;10.640;2023-02-01T16:19:11;3.70;99.90
40151;DHT22;25866;52.420;10.640;2023-02-01T16:21:37;3.70;99.90
40151;DHT22;25866;52.420;10.640;2023-02-01T16:24:03;3.70;99.90
40151;DHT22;25866;52.420;10.640;2023-02-01T16:26:33;3.70;99.90
40151;DHT22;25866;52.420;10.640;2023-02-01T16:28:59;3.70;99.90
40151;DHT22;25866;52.420;10.640;2023-02-01T16:31:30;3.70;99.90
40151;DHT22;25866;52.420;10.640;2023-02-01T16:33:57;3.70;99.90
40151;DHT22;25866;52.420;10.640;2023-02-01T16:36:24;3.80;99.90
40151;DHT22;25866;52.420;10.640;2023-02-01T16:38:51;3.80;99.90
40151;DHT22;25866;52.420;10.640;2023-02-01T16:41:20;3.90;99.90
40151;DHT22;25866;52.420;10.640;2023-02-01T16:43:50;4.00;99.90
40151;DHT22;25866;52.420;10.640;2023-02-01T16:46:19;4.00;99.90
40151;DHT22;25866;52.420;10.640;2023-02-01T16:48:52;4.00;99.90
40151;DHT22;25866;52.420;10.640;2023-02-01T16:51:19;4.10;99.90
40151;DHT22;25866;52.420;10.640;2023-02-01T16:53:45;4.00;99.90
40151;DHT22;25866;52.420;10.640;2023-02-01T16:56:32;4.00;99.90
40151;DHT22;25866;52.420;10.640;2023-02-01T16:58:58;4.00;99.90
40151;DHT22;25866;52.420;10.640;2023-02-01T17:01:25;4.00;99.90
40151;DHT22;25866;52.420;10.640;2023-02-01T17:03:51;4.00;99.90
40151;DHT22;25866;52.420;10.640;2023-02-01T17:06:23;4.00;99.90
40151;DHT22;25866;52.420;10.640;2023-02-01T17:08:59;4.10;99.90
40151;DHT22;25866;52.420;10.640;2023-02-01T17:11:26;4.10;99.90
40151;DHT22;25866;52.420;10.640;2023-02-01T17:13:53;4.20;99.90
40151;DHT22;25866;52.420;10.640;2023-02-01T17:18:50;4.30;99.90
40151;DHT22;25866;52.420;10.640;2023-02-01T17:21:16;4.30;99.90
40151;DHT22;25866;52.420;10.640;2023-02-01T17:23:41;4.40;99.90
40151;DHT22;25866;52.420;10.640;2023-02-01T17:26:10;4.40;99.90
40151;DHT22;25866;52.420;10.640;2023-02-01T17:28:36;4.50;99.90
40151;DHT22;25866;52.420;10.640;2023-02-01T17:31:02;4.30;99.90
40151;DHT22;25866;52.420;10.640;2023-02-01T17:33:31;4.00;99.90
40151;DHT22;25866;52.420;10.640;2023-02-01T17:35:59;3.70;99.90
40151;DHT22;25866;52.420;10.640;2023-02-01T17:38:25;3.50;99.90
40151;DHT22;25866;52.420;10.640;2023-02-01T17:40:51;3.30;99.90
40151;DHT22;25866;52.420;10.640;2023-02-01T17:43:22;3.20;99.90
40151;DHT22;25866;52.420;10.640;2023-02-01T17:48:53;3.30;99.90
40151;DHT22;25866;52.420;10.640;2023-02-01T17:51:24;3.50;99.90
40151;DHT22;25866;52.420;10.640;2023-02-01T17:53:51;3.50;99.90
40151;DHT22;25866;52.420;10.640;2023-02-01T17:56:19;3.60;99.90
40151;DHT22;25866;52.420;10.640;2023-02-01T17:58:46;3.60;99.90
40151;DHT22;25866;52.420;10.640;2023-02-01T18:01:14;3.60;99.90
40151;DHT22;25866;52.420;10.640;2023-02-01T18:03:41;3.60;99.90
40151;DHT22;25866;52.420;10.640;2023-02-01T18:06:13;3.60;99.90
40151;DHT22;25866;52.420;10.640;2023-02-01T18:08:39;3.60;99.90
40151;DHT22;25866;52.420;10.640;2023-02-01T18:11:11;3.60;99.90
40151;DHT22;25866;52.420;10.640;2023-02-01T18:13:37;3.60;99.90
40151;DHT22;25866;52.420;10.640;2023-02-01T18:16:03;3.70;99.90
40151;DHT22;25866;52.420;10.640;2023-02-01T18:18:29;3.70;99.90
40151;DHT22;25866;52.420;10.640;2023-02-01T18:20:58;3.70;99.90
40151;DHT22;25866;52.420;10.640;2023-02-01T18:23:24;3.70;99.90
40151;DHT22;25866;52.420;10.640;2023-02-01T18:25:51;3.80;99.90
40151;DHT22;25866;52.420;10.640;2023-02-01T18:28:18;3.90;99.90
40151;DHT22;25866;52.420;10.640;2023-02-01T18:30:47;3.90;99.90
40151;DHT22;25866;52.420;10.640;2023-02-01T18:33:19;3.80;99.90
40151;DHT22;25866;52.420;10.640;2023-02-01T18:35:45;3.90;99.90